createdAt,value
2019-04-20T00:02:55.493Z,6.20
2019-04-20T00:08:03.242Z,6.80
2019-04-20T00:13:16.598Z,6.97
2019-04-20T00:18:09.886Z,7.12
2019-04-20T00:23:22.645Z,6.72
2019-04-20T00:28:39.874Z,6.55
2019-04-20T00:33:42.259Z,6.67
2019-04-20T00:38:40.851Z,6.60
2019-04-20T00:43:41.779Z,6.15
2019-04-20T00:48:53.636Z,6.12
2019-04-20T00:53:53.830Z,6.30
2019-04-20T00:59:11.999Z,6.33
2019-04-20T01:04:21.954Z,6.15
2019-04-20T01:09:22.280Z,5.83
2019-04-20T01:14:30.909Z,6.28
2019-04-20T01:19:31.214Z,6.00
2019-04-20T01:24:37.158Z,6.78
2019-04-20T01:29:46.754Z,7.75
2019-04-20T01:34:57.637Z,7.53
2019-04-20T01:39:55.216Z,6.75
2019-04-20T01:44:57.377Z,7.53
2019-04-20T01:50:08.460Z,7.15
2019-04-20T02:01:13.674Z,6.80
2019-04-20T02:06:18.093Z,7.17
2019-04-20T02:11:25.958Z,7.15
2019-04-20T02:16:32.754Z,7.15
2019-04-20T02:21:47.768Z,6.50
2019-04-20T02:26:34.848Z,7.12
2019-04-20T02:32:19.728Z,7.30
2019-04-20T02:37:26.355Z,7.45
2019-04-20T02:47:47.332Z,7.40
2019-04-20T02:52:48.621Z,7.67
2019-04-20T02:57:51.109Z,8.35
2019-04-20T03:02:33.496Z,7.12
2019-04-20T03:07:33.938Z,7.92
2019-04-20T03:12:52.239Z,7.50
2019-04-20T03:17:51.305Z,7.70
2019-04-20T03:23:18.808Z,8.63
2019-04-20T03:28:07.028Z,8.03
2019-04-20T03:33:25.684Z,7.80
2019-04-20T03:38:14.489Z,8.55
2019-04-20T03:42:59.133Z,7.83
2019-04-20T03:48:12.341Z,7.73
2019-04-20T03:53:29.328Z,8.15
2019-04-20T03:58:33.457Z,8.50
2019-04-20T04:03:53.765Z,8.58
2019-04-20T04:08:39.754Z,7.72
2019-04-20T04:13:39.722Z,8.20
2019-04-20T04:18:47.356Z,8.13
2019-04-20T04:24:02.239Z,7.87
2019-04-20T04:29:22.607Z,7.75
2019-04-20T04:34:17.404Z,8.40
2019-04-20T04:39:29.403Z,8.35
2019-04-20T04:44:26.574Z,8.88
2019-04-20T04:49:25.756Z,9.13
2019-04-20T04:54:33.839Z,9.23
2019-04-20T04:59:27.574Z,9.80
2019-04-20T05:05:10.619Z,9.30
2019-04-20T05:09:55.196Z,8.70
2019-04-20T05:15:07.599Z,8.50
2019-04-20T05:20:23.002Z,9.48
2019-04-20T05:25:31.116Z,9.35
2019-04-20T05:30:22.819Z,9.75
2019-04-20T05:35:44.147Z,10.78
2019-04-20T05:40:54.233Z,11.53
2019-04-20T05:45:49.907Z,10.82
2019-04-20T05:50:56.072Z,10.98
2019-04-20T05:56:07.281Z,10.53
2019-04-20T06:01:12.259Z,10.63
2019-04-20T06:06:22.125Z,11.30
2019-04-20T06:11:30.344Z,10.65
2019-04-20T06:16:31.026Z,10.25
2019-04-20T06:21:44.266Z,9.80
2019-04-20T06:31:55.463Z,10.75
2019-04-20T06:47:09.321Z,10.95
2019-04-20T06:52:20.249Z,10.68
2019-04-20T06:57:18.472Z,9.10
2019-04-20T07:02:29.936Z,10.72
2019-04-20T07:07:30.437Z,9.18
2019-04-20T07:12:32.760Z,7.75
2019-04-20T07:23:02.212Z,10.75
2019-04-20T07:28:09.740Z,9.05
2019-04-20T07:33:12.657Z,8.35
2019-04-20T07:38:25.571Z,9.00
2019-04-20T07:43:16.466Z,8.95
2019-04-20T07:48:21.163Z,8.15
2019-04-20T07:53:26.063Z,9.20
2019-04-20T07:58:27.359Z,8.48
2019-04-20T08:03:44.213Z,7.70
2019-04-20T08:08:44.010Z,7.72
2019-04-20T08:13:51.279Z,7.05
2019-04-20T08:18:55.498Z,7.20
2019-04-20T08:24:02.634Z,7.12
2019-04-20T08:29:08.962Z,7.28
2019-04-20T08:34:31.440Z,7.50
2019-04-20T08:39:48.175Z,7.30
2019-04-20T08:44:53.710Z,7.17
2019-04-20T08:50:19.347Z,7.05
2019-04-20T08:55:14.590Z,6.58
2019-04-20T09:00:03.602Z,6.70
2019-04-20T09:05:28.137Z,6.60
2019-04-20T09:10:39.184Z,6.70
2019-04-20T09:15:21.666Z,6.55
2019-04-20T09:30:51.971Z,6.53
2019-04-20T09:36:02.365Z,6.97
2019-04-20T09:41:09.110Z,6.30
2019-04-20T09:46:02.068Z,6.75
2019-04-20T09:51:24.799Z,7.05
2019-04-20T09:56:25.601Z,7.20
2019-04-20T10:01:27.263Z,6.67
2019-04-20T10:06:24.930Z,6.92
2019-04-20T10:11:25.486Z,6.30
2019-04-20T10:16:29.478Z,5.95
2019-04-20T10:21:33.954Z,6.87
2019-04-20T10:31:45.466Z,6.55
2019-04-20T10:37:19.791Z,6.65
2019-04-20T10:42:30.136Z,6.72
2019-04-20T10:47:48.998Z,6.22
2019-04-20T10:52:52.444Z,6.10
2019-04-20T10:57:55.948Z,5.75
2019-04-20T11:02:59.668Z,5.87
2019-04-20T11:08:04.342Z,5.43
2019-04-20T11:13:07.842Z,5.87
2019-04-20T11:18:11.598Z,5.60
2019-04-20T11:23:16.084Z,5.33
2019-04-20T11:28:19.973Z,5.78
2019-04-20T11:33:24.542Z,5.70
2019-04-20T11:38:30.109Z,5.75
2019-04-20T11:43:33.719Z,6.17
2019-04-20T11:48:37.412Z,5.75
2019-04-20T11:53:42.716Z,5.20
2019-04-20T11:58:47.082Z,5.53
2019-04-20T12:08:56.997Z,5.50
2019-04-20T12:14:00.705Z,5.25
2019-04-20T12:19:04.766Z,5.27
2019-04-20T12:24:08.186Z,5.08
2019-04-20T12:29:12.003Z,5.42
2019-04-20T12:34:16.146Z,5.05
2019-04-20T12:39:22.221Z,5.08
2019-04-20T12:44:25.806Z,5.37
2019-04-20T12:49:29.630Z,4.85
2019-04-20T12:54:34.438Z,5.00
2019-04-20T12:59:39.181Z,4.83
2019-04-20T13:04:43.557Z,5.00
2019-04-20T13:09:50.731Z,5.67
2019-04-20T13:15:29.038Z,6.42
2019-04-20T13:20:32.468Z,5.40
2019-04-20T13:25:37.042Z,5.10
2019-04-20T13:30:41.885Z,4.90
2019-04-20T13:35:46.073Z,5.58
2019-04-20T13:45:53.120Z,5.60
2019-04-20T13:50:58.166Z,5.10
2019-04-20T13:56:02.278Z,5.05
2019-04-20T14:01:18.868Z,5.30
2019-04-20T14:06:22.767Z,5.45
2019-04-20T14:11:27.346Z,5.10
2019-04-20T14:16:31.488Z,5.60
2019-04-20T14:21:36.287Z,4.97
2019-04-20T14:26:41.251Z,5.03
2019-04-20T14:31:45.956Z,5.28
2019-04-20T14:41:53.885Z,5.42
2019-04-20T14:46:57.986Z,5.10
2019-04-20T14:52:03.163Z,5.15
2019-04-20T14:57:07.745Z,5.30
2019-04-20T15:12:19.275Z,4.90
2019-04-20T15:17:30.356Z,5.00
2019-04-20T15:22:35.984Z,5.50
2019-04-20T15:27:43.517Z,5.08
2019-04-20T15:32:45.069Z,5.08
2019-04-20T15:37:49.165Z,5.20
2019-04-20T15:43:00.960Z,5.55
2019-04-20T15:47:59.374Z,5.80
2019-04-20T15:53:04.069Z,5.47
2019-04-20T15:58:08.397Z,5.50
2019-04-20T16:03:15.054Z,5.60
2019-04-20T16:08:30.288Z,5.00
2019-04-20T16:13:38.510Z,5.28
2019-04-20T16:18:40.972Z,5.15
2019-04-20T16:23:46.455Z,5.12
2019-04-20T16:28:50.231Z,5.45
2019-04-20T16:33:56.874Z,5.45
2019-04-20T16:38:59.493Z,5.67
2019-04-20T16:44:03.266Z,5.30
2019-04-20T16:49:07.295Z,5.40
2019-04-20T18:39:14.615Z,22.40
2019-04-20T18:44:22.333Z,29.32
2019-04-20T18:49:35.033Z,16.32
2019-04-20T18:54:34.046Z,12.82
2019-04-20T18:59:41.784Z,12.82
2019-04-20T19:04:43.852Z,12.78
2019-04-20T19:09:48.493Z,11.73
2019-04-20T19:15:28.127Z,14.38
2019-04-20T19:26:21.133Z,16.73
2019-04-20T19:31:41.369Z,19.50
2019-04-20T19:36:36.295Z,20.50
2019-04-20T19:41:43.997Z,19.85
2019-04-20T19:47:05.274Z,21.05
2019-04-20T19:52:16.047Z,18.52
2019-04-20T22:21:17.451Z,11.65
2019-04-20T22:26:24.076Z,10.68
2019-04-20T22:31:18.192Z,10.80
2019-04-20T22:36:25.946Z,11.00
2019-04-20T22:41:27.883Z,10.35
2019-04-20T22:46:35.584Z,11.73
2019-04-20T22:51:49.572Z,12.10
2019-04-20T22:57:03.516Z,12.43
2019-04-20T23:02:00.566Z,12.00
2019-04-20T23:07:03.130Z,11.22
2019-04-20T23:12:10.145Z,11.27
2019-04-20T23:17:12.437Z,11.00
2019-04-20T23:22:17.507Z,11.97
2019-04-20T23:27:26.385Z,10.93
2019-04-20T23:32:30.063Z,11.33
2019-04-20T23:37:35.622Z,11.12
2019-04-20T23:42:44.521Z,10.88
2019-04-20T23:48:06.722Z,10.78
2019-04-20T23:53:28.469Z,11.28
2019-04-20T23:58:16.417Z,11.50
